createdAt,value
2022-12-08T00:01:09.654Z,101196.44
2022-12-08T00:03:36.904Z,101194.53
2022-12-08T00:06:24.069Z,101183.81
2022-12-08T00:09:09.916Z,101182.09
2022-12-08T00:11:36.589Z,101177.63
2022-12-08T00:14:03.369Z,101174.03
2022-12-08T00:16:29.851Z,101166.91
2022-12-08T00:18:56.408Z,101165.97
2022-12-08T00:21:22.857Z,101161.44
2022-12-08T00:23:49.254Z,101166.66
2022-12-08T00:26:15.884Z,101169.25
2022-12-08T00:28:42.371Z,101167.34
2022-12-08T00:31:10.510Z,101155.78
2022-12-08T00:33:37.342Z,101155.78
2022-12-08T00:36:11.104Z,101154.81
2022-12-08T00:38:38.816Z,101152.28
2022-12-08T00:41:17.260Z,101146.09
2022-12-08T00:43:44.099Z,101141.69
2022-12-08T00:46:11.963Z,101133.75
2022-12-08T00:48:39.203Z,101127.66
2022-12-08T00:51:05.963Z,101130.50
2022-12-08T00:53:32.447Z,101131.56
2022-12-08T00:55:59.005Z,101117.50
2022-12-08T00:58:25.420Z,101119.22
2022-12-08T01:00:52.531Z,101115.75
2022-12-08T01:03:19.185Z,101114.06
2022-12-08T01:05:45.759Z,101113.31
2022-12-08T01:08:12.471Z,101108.94
2022-12-08T01:10:39.551Z,101108.06
2022-12-08T01:13:06.168Z,101109.78
2022-12-08T01:15:32.569Z,101104.41
2022-12-08T01:17:59.194Z,101108.75
2022-12-08T01:20:25.650Z,101110.38
2022-12-08T01:22:52.151Z,101119.06
2022-12-08T01:25:18.640Z,101107.38
2022-12-08T01:27:45.127Z,101096.66
2022-12-08T01:30:13.173Z,101101.06
2022-12-08T01:32:40.175Z,101085.94
2022-12-08T01:35:06.845Z,101099.31
2022-12-08T01:37:33.303Z,101093.16
2022-12-08T01:39:59.755Z,101113.47
2022-12-08T01:42:26.361Z,101117.81
2022-12-08T01:45:02.532Z,101114.22
2022-12-08T01:47:37.849Z,101115.09
2022-12-08T01:50:06.977Z,101104.44
2022-12-08T01:52:36.707Z,101104.44
2022-12-08T01:55:17.439Z,101094.75
2022-12-08T01:57:48.572Z,101098.28
2022-12-08T02:00:18.563Z,101097.47
2022-12-08T02:02:48.046Z,101094.88
2022-12-08T02:05:16.141Z,101092.25
2022-12-08T02:07:43.806Z,101092.41
2022-12-08T02:10:14.094Z,101090.47
2022-12-08T02:12:40.799Z,101085.19
2022-12-08T02:15:07.942Z,101081.59
2022-12-08T02:18:03.426Z,101078.06
2022-12-08T02:20:50.306Z,101076.41
2022-12-08T02:23:27.319Z,101072.84
2022-12-08T02:26:33.079Z,101062.25
2022-12-08T02:29:21.388Z,101063.97
2022-12-08T02:32:08.823Z,101058.66
2022-12-08T02:34:45.549Z,101054.31
2022-12-08T02:37:23.868Z,101057.81
2022-12-08T02:40:11.679Z,101059.47
2022-12-08T02:42:43.929Z,101059.34
2022-12-08T02:45:17.602Z,101046.00
2022-12-08T02:47:44.729Z,101050.50
2022-12-08T02:50:12.079Z,101047.84
2022-12-08T02:52:43.831Z,101043.41
2022-12-08T02:55:31.061Z,101030.88
2022-12-08T02:58:42.139Z,101030.81
2022-12-08T03:01:20.507Z,101029.88
2022-12-08T03:04:23.640Z,101026.38
2022-12-08T03:07:04.066Z,101023.69
2022-12-08T03:09:53.575Z,101015.69
2022-12-08T03:12:30.310Z,101021.03
2022-12-08T03:15:00.410Z,101023.63
2022-12-08T03:17:30.941Z,101019.94
2022-12-08T03:20:00.095Z,101018.09
2022-12-08T03:22:27.703Z,101012.63
2022-12-08T03:24:55.762Z,101020.56
2022-12-08T03:27:27.916Z,101018.69
2022-12-08T03:29:57.184Z,101017.72
2022-12-08T03:32:26.405Z,101007.91
2022-12-08T03:34:54.329Z,101010.56
2022-12-08T03:37:21.546Z,101005.22
2022-12-08T03:39:48.477Z,100995.44
2022-12-08T03:42:14.921Z,100999.78
2022-12-08T03:44:41.350Z,100985.72
2022-12-08T03:47:08.204Z,100977.78
2022-12-08T03:49:34.761Z,100979.66
2022-12-08T03:52:01.182Z,100980.63
2022-12-08T03:54:27.693Z,100973.66
2022-12-08T03:56:54.130Z,100978.97
2022-12-08T03:59:20.708Z,100968.38
2022-12-08T04:01:47.264Z,100966.63
2022-12-08T04:04:13.720Z,100971.97
2022-12-08T04:06:40.301Z,100977.34
2022-12-08T04:09:06.694Z,100973.03
2022-12-08T04:11:33.335Z,100974.84
2022-12-08T04:13:59.778Z,100978.38
2022-12-08T04:16:27.934Z,100970.38
2022-12-08T04:18:55.076Z,100971.34
2022-12-08T04:21:21.951Z,100968.81
2022-12-08T04:23:48.958Z,100966.16
2022-12-08T04:26:15.611Z,100952.91
2022-12-08T04:28:42.395Z,100954.69
2022-12-08T04:31:09.272Z,100951.19
2022-12-08T04:33:35.866Z,100963.56
2022-12-08T04:36:04.648Z,100960.84
2022-12-08T04:38:31.968Z,100958.22
2022-12-08T04:40:58.470Z,100948.50
2022-12-08T04:43:24.932Z,100949.34
2022-12-08T04:45:51.405Z,100942.31
2022-12-08T04:48:18.119Z,100945.88
2022-12-08T04:50:45.608Z,100949.19
2022-12-08T04:53:13.029Z,100958.03
2022-12-08T04:55:41.229Z,100950.16
2022-12-08T04:58:07.855Z,100950.03
2022-12-08T05:00:34.289Z,100944.75
2022-12-08T05:03:00.872Z,100942.97
2022-12-08T05:05:27.364Z,100946.44
2022-12-08T05:07:53.834Z,100941.19
2022-12-08T05:10:20.369Z,100946.56
2022-12-08T05:12:46.836Z,100949.28
2022-12-08T05:15:13.407Z,100946.63
2022-12-08T05:17:39.836Z,100945.72
2022-12-08T05:20:07.089Z,100946.53
2022-12-08T05:22:33.895Z,100940.25
2022-12-08T05:25:00.404Z,100943.78
2022-12-08T05:27:26.889Z,100950.16
2022-12-08T05:29:53.575Z,100946.63
2022-12-08T05:32:20.103Z,100950.31
2022-12-08T05:34:46.557Z,100942.25
2022-12-08T05:37:13.164Z,100941.22
2022-12-08T05:39:39.675Z,100941.13
2022-12-08T05:42:06.388Z,100941.19
2022-12-08T05:44:32.918Z,100928.97
2022-12-08T05:46:59.347Z,100928.25
2022-12-08T05:49:26.151Z,100930.16
2022-12-08T05:51:52.808Z,100930.22
2022-12-08T05:54:19.308Z,100930.97
2022-12-08T05:56:45.725Z,100926.56
2022-12-08T05:59:12.210Z,100930.16
2022-12-08T06:01:39.132Z,100931.88
2022-12-08T06:04:05.662Z,100924.97
2022-12-08T06:06:34.999Z,100928.50
2022-12-08T06:09:05.393Z,100929.34
2022-12-08T06:11:32.817Z,100925.78
2022-12-08T06:14:00.049Z,100923.13
2022-12-08T06:16:28.210Z,100929.22
2022-12-08T06:18:55.788Z,100926.56
2022-12-08T06:21:23.084Z,100918.56
2022-12-08T06:23:51.684Z,100926.56
2022-12-08T06:26:18.850Z,100918.56
2022-12-08T06:28:45.527Z,100914.31
2022-12-08T06:31:24.640Z,100914.44
2022-12-08T06:33:52.406Z,100918.84
2022-12-08T06:36:21.403Z,100920.63
2022-12-08T06:38:48.105Z,100920.75
2022-12-08T06:41:14.896Z,100928.94
2022-12-08T06:43:41.658Z,100922.75
2022-12-08T06:46:11.997Z,100931.69
2022-12-08T06:48:38.676Z,100933.34
2022-12-08T06:51:10.568Z,100930.88
2022-12-08T06:53:40.517Z,100930.00
2022-12-08T06:56:07.851Z,100933.75
2022-12-08T06:58:34.615Z,100938.53
2022-12-08T07:01:09.131Z,100933.22
2022-12-08T07:03:37.158Z,100927.06
2022-12-08T07:06:04.708Z,100928.91
2022-12-08T07:08:32.691Z,100922.63
2022-12-08T07:10:59.366Z,100917.50
2022-12-08T07:13:25.775Z,100927.34
2022-12-08T07:15:52.598Z,100931.78
2022-12-08T07:18:19.092Z,100930.22
2022-12-08T07:20:45.595Z,100932.94
2022-12-08T07:23:12.072Z,100930.34
2022-12-08T07:25:38.595Z,100928.66
2022-12-08T07:28:10.000Z,100930.47
2022-12-08T07:30:36.984Z,100925.94
2022-12-08T07:33:05.589Z,100925.03
2022-12-08T07:35:34.731Z,100922.44
2022-12-08T07:38:01.924Z,100933.19
2022-12-08T07:40:28.639Z,100934.94
2022-12-08T07:42:55.192Z,100932.25
2022-12-08T07:45:24.519Z,100924.41
2022-12-08T07:47:54.925Z,100926.94
2022-12-08T07:50:21.403Z,100929.53
2022-12-08T07:52:48.763Z,100932.13
2022-12-08T07:55:15.360Z,100930.28
2022-12-08T07:57:41.876Z,100927.63
2022-12-08T08:00:08.945Z,100934.88
2022-12-08T08:02:38.499Z,100926.00
2022-12-08T08:05:06.224Z,100928.72
2022-12-08T08:07:32.945Z,100932.25
2022-12-08T08:09:59.477Z,100923.47
2022-12-08T08:12:33.543Z,100927.13
2022-12-08T08:15:01.673Z,100931.44
2022-12-08T08:17:29.484Z,100927.84
2022-12-08T08:19:56.743Z,100933.84
2022-12-08T08:22:24.170Z,100938.47
2022-12-08T08:24:50.668Z,100939.25
2022-12-08T08:27:17.233Z,100937.53
2022-12-08T08:29:43.839Z,100941.13
2022-12-08T08:32:10.496Z,100936.78
2022-12-08T08:34:37.083Z,100946.50
2022-12-08T08:37:04.862Z,100951.66
2022-12-08T08:39:31.896Z,100953.44
2022-12-08T08:41:58.637Z,100951.53
2022-12-08T08:44:25.302Z,100955.13
2022-12-08T08:46:51.909Z,100942.59
2022-12-08T08:49:18.714Z,100951.41
2022-12-08T08:51:45.414Z,100947.00
2022-12-08T08:54:11.895Z,100956.72
2022-12-08T08:56:38.370Z,100948.88
2022-12-08T08:59:05.745Z,100951.31
2022-12-08T09:01:32.549Z,100946.06
2022-12-08T09:03:59.393Z,100942.44
2022-12-08T09:06:28.004Z,100934.50
2022-12-08T09:08:54.614Z,100941.56
2022-12-08T09:11:23.419Z,100932.44
2022-12-08T09:13:51.968Z,100937.44
2022-12-08T09:16:19.531Z,100936.34
2022-12-08T09:18:46.344Z,100935.19
2022-12-08T09:21:20.101Z,100946.44
2022-12-08T09:23:46.511Z,100934.75
2022-12-08T09:26:12.916Z,100944.44
2022-12-08T09:28:39.452Z,100939.03
2022-12-08T09:31:06.222Z,100941.50
2022-12-08T09:33:36.293Z,100935.63
2022-12-08T09:36:03.994Z,100935.03
2022-12-08T09:38:33.623Z,100935.63
2022-12-08T09:41:03.710Z,100938.03
2022-12-08T09:44:03.930Z,100936.03
2022-12-08T09:46:33.919Z,100940.38
2022-12-08T09:49:02.074Z,100944.84
2022-12-08T09:51:34.650Z,100950.16
2022-12-08T09:54:07.813Z,100940.31
2022-12-08T09:56:37.015Z,100947.38
2022-12-08T09:59:22.116Z,100949.34
2022-12-08T10:01:52.368Z,100946.63
2022-12-08T10:04:32.422Z,100946.75
2022-12-08T10:07:26.599Z,100943.13
2022-12-08T10:10:03.438Z,100944.97
2022-12-08T10:12:33.284Z,100942.91
2022-12-08T10:15:19.243Z,100935.59
2022-12-08T10:17:48.590Z,100942.19
2022-12-08T10:20:24.426Z,100936.91
2022-12-08T10:22:58.564Z,100929.00
2022-12-08T10:25:35.469Z,100934.09
2022-12-08T10:28:08.735Z,100933.19
2022-12-08T10:30:35.236Z,100931.38
2022-12-08T10:33:01.952Z,100927.72
2022-12-08T10:35:45.883Z,100914.63
2022-12-08T10:38:30.636Z,100913.78
2022-12-08T10:41:11.350Z,100921.06
2022-12-08T10:46:38.077Z,100912.47
2022-12-08T10:49:04.659Z,100911.66
2022-12-08T10:51:34.139Z,100912.41
2022-12-08T10:54:01.517Z,100920.53
2022-12-08T10:56:30.680Z,100910.72
2022-12-08T10:59:13.400Z,100905.38
2022-12-08T11:01:41.506Z,100918.72
2022-12-08T11:04:20.310Z,100919.59
2022-12-08T11:06:48.940Z,100916.19
2022-12-08T11:09:15.480Z,100917.22
2022-12-08T11:11:50.162Z,100919.72
2022-12-08T11:14:22.594Z,100923.13
2022-12-08T11:16:55.982Z,100918.84
2022-12-08T11:19:27.754Z,100919.97
2022-12-08T11:21:54.468Z,100911.06
2022-12-08T11:24:24.775Z,100913.72
2022-12-08T11:27:04.704Z,100906.63
2022-12-08T11:29:35.493Z,100899.66
2022-12-08T11:32:04.438Z,100888.94
2022-12-08T11:41:39.773Z,100880.66
2022-12-08T11:59:50.896Z,100855.22
2022-12-08T12:09:44.495Z,100849.59
2022-12-08T12:12:39.909Z,100852.03
2022-12-08T12:15:30.061Z,100845.72
2022-12-08T12:21:34.351Z,100844.53
2022-12-08T12:24:06.986Z,100843.41
2022-12-08T12:27:22.191Z,100839.13
2022-12-08T12:30:13.460Z,100843.56
2022-12-08T12:36:18.133Z,100838.56
2022-12-08T12:39:10.984Z,100837.91
2022-12-08T12:42:06.507Z,100835.81
2022-12-08T12:44:56.098Z,100831.56
2022-12-08T12:47:56.253Z,100828.84
2022-12-08T12:50:32.427Z,100831.34
2022-12-08T12:53:17.315Z,100822.47
2022-12-08T12:56:00.752Z,100825.09
2022-12-08T12:58:27.954Z,100828.63
2022-12-08T13:01:45.084Z,100826.53
2022-12-08T13:05:06.252Z,100819.53
2022-12-08T13:12:45.416Z,100817.81
2022-12-08T13:23:35.046Z,100815.50
2022-12-08T13:34:48.434Z,100809.59
2022-12-08T13:42:16.714Z,100810.22
2022-12-08T13:46:12.518Z,100802.59
2022-12-08T13:57:01.272Z,100801.75
2022-12-08T13:59:29.608Z,100803.75
2022-12-08T14:02:55.393Z,100808.31
2022-12-08T14:06:13.674Z,100817.59
2022-12-08T14:09:23.439Z,100814.78
2022-12-08T14:12:37.616Z,100816.22
2022-12-08T14:19:07.570Z,100820.03
2022-12-08T14:22:12.408Z,100812.97
2022-12-08T14:24:38.380Z,100815.00
2022-12-08T14:27:10.582Z,100819.59
2022-12-08T14:29:52.695Z,100821.22
2022-12-08T14:33:03.166Z,100818.78
2022-12-08T14:36:17.962Z,100815.31
2022-12-08T14:39:10.881Z,100814.88
2022-12-08T14:42:13.977Z,100817.75
2022-12-08T14:48:25.618Z,100813.63
2022-12-08T14:50:58.025Z,100811.94
2022-12-08T14:53:25.601Z,100814.75
2022-12-08T14:55:52.362Z,100811.44
2022-12-08T14:58:24.827Z,100809.03
2022-12-08T15:00:56.742Z,100809.28
2022-12-08T15:03:24.745Z,100812.16
2022-12-08T15:05:56.955Z,100800.91
2022-12-08T15:08:24.270Z,100804.53
2022-12-08T15:11:13.711Z,100810.00
2022-12-08T15:13:48.232Z,100805.50
2022-12-08T15:16:29.204Z,100806.38
2022-12-08T15:19:28.248Z,100810.84
2022-12-08T15:21:57.492Z,100805.50
2022-12-08T15:24:25.449Z,100801.06
2022-12-08T15:26:52.840Z,100796.59
2022-12-08T15:29:28.289Z,100791.28
2022-12-08T15:32:00.694Z,100802.91
2022-12-08T15:34:27.522Z,100797.50
2022-12-08T15:36:55.067Z,100796.59
2022-12-08T15:39:32.921Z,100804.53
2022-12-08T15:42:00.372Z,100800.91
2022-12-08T15:44:27.154Z,100808.00
2022-12-08T15:46:53.944Z,100817.63
2022-12-08T15:49:22.881Z,100812.03
2022-12-08T15:51:50.157Z,100813.78
2022-12-08T15:54:16.886Z,100821.69
2022-12-08T15:57:17.959Z,100820.63
2022-12-08T15:59:37.521Z,100816.09
2022-12-08T16:02:04.207Z,100808.09
2022-12-08T16:05:18.358Z,100807.44
2022-12-08T16:07:33.562Z,100804.03
2022-12-08T16:13:57.509Z,100815.34
2022-12-08T16:16:29.511Z,100813.25
2022-12-08T16:18:55.895Z,100805.69
2022-12-08T16:21:53.410Z,100813.88
2022-12-08T16:24:09.605Z,100813.97
2022-12-08T16:27:35.485Z,100805.00
2022-12-08T16:29:28.346Z,100800.56
2022-12-08T16:31:55.039Z,100801.63
2022-12-08T16:34:21.608Z,100798.28
2022-12-08T16:36:52.541Z,100791.59
2022-12-08T16:39:19.111Z,100793.91
2022-12-08T16:42:04.159Z,100795.91
2022-12-08T16:44:42.372Z,100792.50
2022-12-08T16:47:09.423Z,100796.88
2022-12-08T16:49:39.225Z,100796.81
2022-12-08T16:52:08.592Z,100800.22
2022-12-08T16:54:35.247Z,100792.91
2022-12-08T16:57:01.772Z,100800.63
2022-12-08T16:59:28.255Z,100795.06
2022-12-08T17:01:54.770Z,100796.66
2022-12-08T17:04:36.931Z,100803.59
2022-12-08T17:07:03.545Z,100811.53
2022-12-08T17:09:31.611Z,100802.50
2022-12-08T17:12:03.514Z,100805.97
2022-12-08T17:14:33.992Z,100800.56
2022-12-08T17:17:00.919Z,100804.28
2022-12-08T17:19:27.499Z,100794.63
2022-12-08T17:21:53.990Z,100795.63
2022-12-08T17:24:22.981Z,100801.06
2022-12-08T17:26:49.485Z,100801.13
2022-12-08T17:29:18.580Z,100793.44
2022-12-08T17:31:45.518Z,100792.91
2022-12-08T17:34:12.244Z,100789.69
2022-12-08T17:36:38.746Z,100783.81
2022-12-08T17:39:13.441Z,100793.84
2022-12-08T17:41:44.673Z,100792.22
2022-12-08T17:44:17.450Z,100803.06
2022-12-08T17:46:49.109Z,100796.13
2022-12-08T17:49:24.808Z,100796.19
2022-12-08T17:51:54.844Z,100793.66
2022-12-08T17:54:21.752Z,100792.84
2022-12-08T17:56:48.453Z,100798.91
2022-12-08T17:59:15.509Z,100789.00
2022-12-08T18:01:44.532Z,100796.81
2022-12-08T18:04:12.424Z,100795.91
2022-12-08T18:06:43.393Z,100796.66
2022-12-08T18:09:10.015Z,100799.19
2022-12-08T18:11:36.863Z,100791.28
2022-12-08T18:14:09.935Z,100802.31
2022-12-08T18:16:47.204Z,100792.97
2022-12-08T18:19:15.386Z,100791.47
2022-12-08T18:21:42.390Z,100801.47
2022-12-08T18:24:15.162Z,100797.81
2022-12-08T18:26:41.707Z,100795.97
2022-12-08T18:29:08.155Z,100788.75
2022-12-08T18:31:34.604Z,100795.63
2022-12-08T18:34:01.151Z,100792.78
2022-12-08T18:36:27.630Z,100778.59
2022-12-08T18:38:54.146Z,100774.47
2022-12-08T18:41:26.526Z,100781.91
2022-12-08T18:44:00.392Z,100793.75
2022-12-08T18:46:39.125Z,100796.63
2022-12-08T18:52:13.168Z,100802.34
2022-12-08T18:55:09.111Z,100798.25
2022-12-08T18:58:06.501Z,100800.28
2022-12-08T19:00:31.385Z,100806.56
2022-12-08T19:03:00.039Z,100809.09
2022-12-08T19:05:26.836Z,100813.13
2022-12-08T19:15:33.456Z,100808.44
2022-12-08T19:28:43.125Z,100815.63
2022-12-08T19:31:10.771Z,100806.53
2022-12-08T19:38:35.464Z,100812.47
2022-12-08T19:45:00.444Z,100818.56
2022-12-08T19:48:09.889Z,100820.31
2022-12-08T19:51:14.799Z,100824.72
2022-12-08T19:53:47.286Z,100822.78
2022-12-08T19:56:14.469Z,100816.59
2022-12-08T19:58:41.210Z,100818.34
2022-12-08T20:01:08.159Z,100820.13
2022-12-08T20:03:40.373Z,100819.03
2022-12-08T20:06:18.315Z,100825.03
2022-12-08T20:09:09.288Z,100831.41
2022-12-08T20:15:29.629Z,100831.47
2022-12-08T20:21:41.569Z,100830.50
2022-12-08T20:24:17.615Z,100831.34
2022-12-08T20:30:02.935Z,100834.53
2022-12-08T20:32:33.395Z,100821.16
2022-12-08T20:35:56.119Z,100825.59
2022-12-08T20:41:26.626Z,100830.78
2022-12-08T20:44:05.514Z,100832.53
2022-12-08T20:46:34.692Z,100838.75
2022-12-08T20:49:04.226Z,100848.59
2022-12-08T20:51:32.821Z,100837.09
2022-12-08T20:54:02.143Z,100842.31
2022-12-08T20:56:36.453Z,100842.25
2022-12-08T20:59:03.287Z,100831.53
2022-12-08T21:01:32.467Z,100834.06
2022-12-08T21:04:28.107Z,100842.03
2022-12-08T21:07:01.623Z,100850.91
2022-12-08T21:09:31.705Z,100844.78
2022-12-08T21:11:58.575Z,100843.13
2022-12-08T21:17:43.693Z,100843.78
2022-12-08T21:21:10.999Z,100851.66
2022-12-08T21:30:13.896Z,100848.91
2022-12-08T21:32:39.304Z,100844.47
2022-12-08T21:42:00.237Z,100850.09
2022-12-08T21:44:56.349Z,100853.81
2022-12-08T21:47:52.236Z,100855.47
2022-12-08T21:50:20.025Z,100847.56
2022-12-08T21:56:11.443Z,100855.28
2022-12-08T21:59:01.798Z,100860.53
2022-12-08T22:03:30.182Z,100856.09
2022-12-08T22:06:45.685Z,100860.44
2022-12-08T22:15:33.134Z,100860.59
2022-12-08T22:18:31.305Z,100869.41
2022-12-08T22:25:30.977Z,100872.75
2022-12-08T22:28:22.339Z,100875.53
2022-12-08T22:31:07.430Z,100876.47
2022-12-08T22:33:40.597Z,100865.84
2022-12-08T22:37:04.200Z,100864.91
2022-12-08T22:40:40.773Z,100865.69
2022-12-08T22:44:07.145Z,100851.38
2022-12-08T22:47:25.663Z,100864.63
2022-12-08T23:00:20.627Z,100841.97
2022-12-08T23:09:21.380Z,100841.88
2022-12-08T23:14:56.177Z,100835.97
2022-12-08T23:17:27.056Z,100840.44
2022-12-08T23:20:15.526Z,100847.56
2022-12-08T23:22:53.615Z,100844.91
2022-12-08T23:38:38.926Z,100843.19
2022-12-08T23:48:14.122Z,100843.47
2022-12-08T23:54:12.872Z,100834.72
2022-12-08T23:57:04.480Z,100830.34
2022-12-08T23:59:42.168Z,100828.53
